createdAt,value
2022-08-02T00:04:51.310Z,13.2
2022-08-02T00:09:51.317Z,13.1
2022-08-02T00:14:51.289Z,13.1
2022-08-02T00:19:51.259Z,13
2022-08-02T00:24:51.369Z,12.9
2022-08-02T00:29:52.697Z,12.9
2022-08-02T00:34:51.399Z,12.9
2022-08-02T00:39:51.239Z,12.7
2022-08-02T00:44:51.231Z,12.5
2022-08-02T00:49:51.626Z,12.5
2022-08-02T00:54:51.270Z,12.8
2022-08-02T00:59:51.223Z,12.6
2022-08-02T01:04:51.215Z,12.5
2022-08-02T01:09:51.518Z,12.5
2022-08-02T01:14:51.294Z,12.5
2022-08-02T01:19:51.253Z,12.4
2022-08-02T01:24:51.203Z,12.3
2022-08-02T01:29:51.471Z,12.2
2022-08-02T01:34:51.241Z,12.2
2022-08-02T01:39:51.190Z,12.2
2022-08-02T01:44:51.187Z,12
2022-08-02T01:49:51.185Z,12
2022-08-02T01:54:51.177Z,11.9
2022-08-02T01:59:51.538Z,11.9
2022-08-02T02:04:51.224Z,11.9
2022-08-02T02:09:51.167Z,12.1
2022-08-02T02:14:51.626Z,12
2022-08-02T02:19:51.551Z,12
2022-08-02T02:24:51.205Z,11.9
2022-08-02T02:29:51.151Z,11.9
2022-08-02T02:34:51.446Z,11.9
2022-08-02T02:39:51.192Z,11.9
2022-08-02T02:44:51.143Z,11.8
2022-08-02T02:49:51.143Z,11.7
2022-08-02T02:54:51.459Z,11.7
2022-08-02T02:59:51.179Z,11.7
2022-08-02T03:04:55.526Z,11.6
2022-08-02T03:09:53.741Z,11.6
2022-08-02T03:14:51.193Z,11.6
2022-08-02T03:19:51.115Z,11.5
2022-08-02T03:24:51.109Z,11.6
2022-08-02T03:29:51.106Z,11.5
2022-08-02T03:34:51.452Z,11.5
2022-08-02T03:39:52.984Z,11.4
2022-08-02T03:44:51.095Z,11.4
2022-08-02T03:49:51.090Z,11.4
2022-08-02T03:54:51.088Z,11.3
2022-08-02T03:59:51.397Z,11.3
2022-08-02T04:04:51.131Z,11.3
2022-08-02T04:09:51.077Z,11.3
2022-08-02T04:14:51.069Z,11.3
2022-08-02T04:19:51.070Z,11.4
2022-08-02T04:24:51.481Z,11.4
2022-08-02T04:29:51.114Z,11.4
2022-08-02T04:35:11.647Z,11.5
2022-08-02T04:39:51.209Z,11.5
2022-08-02T04:44:51.369Z,11.6
2022-08-02T04:49:51.096Z,11.6
2022-08-02T04:54:51.042Z,11.6
2022-08-02T04:59:54.457Z,11.6
2022-08-02T05:04:51.035Z,11.7
2022-08-02T05:09:51.028Z,11.8
2022-08-02T05:14:51.345Z,11.9
2022-08-02T05:19:51.166Z,12.1
2022-08-02T05:24:51.020Z,12.2
2022-08-02T05:29:51.300Z,12.3
2022-08-02T05:34:51.014Z,12.4
2022-08-02T05:39:55.225Z,12.6
2022-08-02T05:44:51.050Z,12.8
2022-08-02T05:49:51.152Z,12.8
2022-08-02T05:54:51.005Z,12.9
2022-08-02T05:59:51.306Z,13
2022-08-02T06:04:51.039Z,13.3
2022-08-02T06:09:50.993Z,13.4
2022-08-02T06:14:54.357Z,13.6
2022-08-02T06:19:52.577Z,13.7
2022-08-02T06:24:51.053Z,13.8
2022-08-02T06:29:50.971Z,13.9
2022-08-02T06:34:50.974Z,14
2022-08-02T06:39:50.967Z,14
2022-08-02T06:44:54.365Z,14.1
2022-08-02T06:49:54.020Z,14.3
2022-08-02T06:54:50.952Z,14.4
2022-08-02T06:59:50.959Z,14.3
2022-08-02T07:04:51.477Z,14.5
2022-08-02T07:09:57.175Z,14.6
2022-08-02T07:14:50.937Z,14.7
2022-08-02T07:19:51.214Z,14.4
2022-08-02T07:24:50.986Z,14.4
2022-08-02T07:29:50.925Z,14.2
2022-08-02T07:34:53.345Z,14.3
2022-08-02T07:39:50.923Z,14.4
2022-08-02T07:44:50.916Z,14.4
2022-08-02T07:49:50.913Z,14.9
2022-08-02T07:54:51.216Z,14.5
2022-08-02T07:59:51.271Z,14.5
2022-08-02T08:04:50.949Z,14.5
2022-08-02T08:09:50.945Z,14.2
2022-08-02T08:14:51.003Z,14.6
2022-08-02T08:19:52.441Z,14.7
2022-08-02T08:24:51.182Z,15.1
2022-08-02T08:29:51.153Z,14.8
2022-08-02T08:34:50.928Z,14.5
2022-08-02T08:39:53.813Z,14.4
2022-08-02T08:44:50.869Z,14.1
2022-08-02T08:49:51.179Z,14.4
2022-08-02T08:54:50.863Z,14.2
2022-08-02T08:59:51.164Z,14.1
2022-08-02T09:04:55.214Z,14.2
2022-08-02T09:09:50.857Z,14.2
2022-08-02T09:14:50.854Z,14.3
2022-08-02T09:19:50.846Z,14.4
2022-08-02T09:24:51.150Z,13.8
2022-08-02T09:30:10.724Z,14.1
2022-08-02T09:34:50.829Z,14.3
2022-08-02T09:39:50.827Z,14.1
2022-08-02T09:44:51.149Z,14.3
2022-08-02T09:49:52.189Z,14.4
2022-08-02T09:54:50.821Z,14.7
2022-08-02T09:59:50.814Z,14.2
2022-08-02T10:04:51.945Z,14.1
2022-08-02T10:09:50.839Z,14
2022-08-02T10:14:50.805Z,13.8
2022-08-02T10:20:01.446Z,13.9
2022-08-02T10:24:50.795Z,13.9
2022-08-02T10:29:53.486Z,14.4
2022-08-02T10:34:51.158Z,14.1
2022-08-02T10:39:51.062Z,14.3
2022-08-02T10:44:50.824Z,14.1
2022-08-02T10:54:50.774Z,14.3
2022-08-02T10:59:50.772Z,14.1
2022-08-02T11:04:50.769Z,14.1
2022-08-02T11:09:50.758Z,14.1
2022-08-02T11:14:50.754Z,13.9
2022-08-02T11:19:50.757Z,13.8
2022-08-02T11:24:50.752Z,14.1
2022-08-02T11:29:50.851Z,13.9
2022-08-02T11:34:51.017Z,13.9
2022-08-02T11:39:50.977Z,13.9
2022-08-02T11:44:50.794Z,13.7
2022-08-02T11:49:50.780Z,13.6
2022-08-02T11:54:50.731Z,13.5
2022-08-02T11:59:50.721Z,13.7
2022-08-02T12:04:51.033Z,13.1
2022-08-02T12:09:50.765Z,13.1
2022-08-02T12:14:50.710Z,13.1
2022-08-02T12:19:50.989Z,13
2022-08-02T12:24:50.766Z,13.3
2022-08-02T12:29:56.117Z,13.2
2022-08-02T12:34:50.696Z,13.1
2022-08-02T12:39:50.692Z,13.2
2022-08-02T12:44:50.688Z,13.1
2022-08-02T12:49:50.832Z,13
2022-08-02T12:54:51.130Z,13.3
2022-08-02T12:59:50.735Z,12.3
2022-08-02T13:04:51.044Z,12.7
2022-08-02T13:09:50.669Z,12.8
2022-08-02T13:14:50.986Z,12
2022-08-02T13:19:51.026Z,12.2
2022-08-02T13:24:55.441Z,12.6
2022-08-02T13:29:50.654Z,12.7
2022-08-02T13:34:50.971Z,12.6
2022-08-02T13:40:12.177Z,12.6
2022-08-02T13:44:50.643Z,12.4
2022-08-02T13:49:53.197Z,12.3
2022-08-02T13:54:50.637Z,12.8
2022-08-02T13:59:55.642Z,12.1
2022-08-02T14:04:50.936Z,12.3
2022-08-02T14:09:50.839Z,12
2022-08-02T14:14:50.626Z,12.4
2022-08-02T14:19:50.614Z,12.2
2022-08-02T14:24:50.905Z,12
2022-08-02T14:29:50.676Z,12.2
2022-08-02T14:34:50.605Z,12
2022-08-02T14:39:59.926Z,11.8
2022-08-02T14:44:50.888Z,12
2022-08-02T14:49:50.786Z,11.5
2022-08-02T14:54:50.738Z,11.9
2022-08-02T14:59:50.584Z,11.7
2022-08-02T15:04:50.580Z,12.3
2022-08-02T15:09:50.579Z,12.4
2022-08-02T15:14:50.574Z,12.4
2022-08-02T15:19:57.214Z,12.4
2022-08-02T15:24:50.565Z,12.1
2022-08-02T15:29:50.567Z,12
2022-08-02T15:34:50.693Z,12.2
2022-08-02T15:39:50.558Z,11.8
2022-08-02T15:44:50.865Z,11.6
2022-08-02T15:49:50.665Z,12.2
2022-08-02T15:54:50.551Z,12.2
2022-08-02T15:59:50.542Z,11.9
2022-08-02T16:04:50.534Z,11.9
2022-08-02T16:09:50.681Z,12.1
2022-08-02T16:14:50.534Z,11.8
2022-08-02T16:19:52.795Z,11.9
2022-08-02T16:24:50.827Z,11.9
2022-08-02T16:29:50.565Z,12
2022-08-02T16:35:06.861Z,12.2
2022-08-02T16:39:50.510Z,12
2022-08-02T16:44:53.156Z,11.8
2022-08-02T16:50:06.300Z,12.6
2022-08-02T16:54:50.862Z,12.2
2022-08-02T16:59:57.581Z,11.8
2022-08-02T17:04:50.495Z,11.8
2022-08-02T17:10:02.846Z,12.4
2022-08-02T17:14:54.763Z,12.7
2022-08-02T17:19:50.526Z,11.8
2022-08-02T17:24:50.489Z,12.6
2022-08-02T17:29:50.574Z,12.9
2022-08-02T17:34:56.786Z,13.8
2022-08-02T17:39:51.603Z,12.8
2022-08-02T17:44:50.459Z,13.4
2022-08-02T17:49:50.529Z,13.6
2022-08-02T17:54:50.730Z,12.5
2022-08-02T18:00:03.733Z,12.7
2022-08-02T18:04:50.498Z,13
2022-08-02T18:09:50.571Z,13.2
2022-08-02T18:14:50.740Z,13.2
2022-08-02T18:19:54.103Z,13.1
2022-08-02T18:24:50.432Z,13.1
2022-08-02T18:29:59.902Z,13.1
2022-08-02T18:34:50.522Z,13.1
2022-08-02T18:39:51.183Z,13
2022-08-02T18:44:50.466Z,13
2022-08-02T18:49:52.845Z,12.9
2022-08-02T18:54:50.408Z,12.7
2022-08-02T18:59:51.374Z,12.7
2022-08-02T19:04:50.400Z,12.8
2022-08-02T19:09:50.674Z,12.8
2022-08-02T19:14:50.504Z,12.7
2022-08-02T19:19:51.114Z,12.5
2022-08-02T19:24:50.388Z,12.6
2022-08-02T19:29:51.132Z,12.4
2022-08-02T19:34:50.430Z,12.7
2022-08-02T19:39:50.378Z,12.6
2022-08-02T19:44:50.370Z,12.6
2022-08-02T19:49:50.393Z,12.6
2022-08-02T19:54:54.811Z,12.5
2022-08-02T19:59:50.651Z,12.7
2022-08-02T20:04:52.825Z,12.6
2022-08-02T20:09:50.355Z,12.5
2022-08-02T20:14:50.848Z,12.6
2022-08-02T20:19:50.344Z,12.5
2022-08-02T20:24:50.353Z,12.6
2022-08-02T20:29:50.750Z,12.7
2022-08-02T20:34:50.508Z,12.5
2022-08-02T20:39:50.452Z,12.6
2022-08-02T20:44:50.452Z,12.5
2022-08-02T20:49:50.643Z,12.6
2022-08-02T20:54:50.476Z,12.5
2022-08-02T20:59:51.262Z,12.5
2022-08-02T21:04:50.427Z,12.6
2022-08-02T21:09:52.688Z,12.4
2022-08-02T21:14:50.491Z,12.4
2022-08-02T21:19:50.300Z,12.5
2022-08-02T21:24:50.297Z,12.4
2022-08-02T21:29:50.570Z,12.3
2022-08-02T21:34:50.455Z,12.3
2022-08-02T21:39:50.338Z,12.2
2022-08-02T21:44:50.659Z,12.3
2022-08-02T21:50:09.112Z,12.2
2022-08-02T21:54:50.450Z,12.3
2022-08-02T21:59:52.896Z,12.2
2022-08-02T22:04:50.270Z,12.2
2022-08-02T22:09:50.354Z,12.2
2022-08-02T22:14:53.627Z,12.3
2022-08-02T22:19:50.948Z,12.2
2022-08-02T22:24:50.445Z,12.2
2022-08-02T22:29:50.286Z,12.2
2022-08-02T22:34:51.481Z,12.2
2022-08-02T22:40:06.167Z,12.2
2022-08-02T22:44:50.361Z,12.2
2022-08-02T22:49:52.923Z,12.1
2022-08-02T22:54:50.902Z,12.2
2022-08-02T22:59:50.267Z,12.2
2022-08-02T23:04:50.220Z,12.1
2022-08-02T23:09:50.215Z,12
2022-08-02T23:14:50.537Z,12
2022-08-02T23:19:50.259Z,12.1
2022-08-02T23:24:50.204Z,12.1
2022-08-02T23:29:50.199Z,12
2022-08-02T23:34:50.197Z,11.9
2022-08-02T23:39:50.193Z,11.9
2022-08-02T23:44:50.493Z,12
2022-08-02T23:49:50.236Z,12
2022-08-02T23:54:50.182Z,12
2022-08-02T23:59:50.185Z,11.9
